sensor_id;sensor_type;location;lat;lon;timestamp;P1;durP1;ratioP1;P2;durP2;ratioP2
11797;SDS011;5956;51.428;6.682;2023-09-19T00:00:36;7.07;;;2.95;;
11797;SDS011;5956;51.428;6.682;2023-09-19T00:03:03;12.05;;;3.20;;
11797;SDS011;5956;51.428;6.682;2023-09-19T00:05:34;8.95;;;2.83;;
11797;SDS011;5956;51.428;6.682;2023-09-19T00:08:01;6.97;;;2.78;;
11797;SDS011;5956;51.428;6.682;2023-09-19T00:10:29;7.35;;;2.45;;
11797;SDS011;5956;51.428;6.682;2023-09-19T00:12:56;10.95;;;3.22;;
11797;SDS011;5956;51.428;6.682;2023-09-19T00:15:24;8.95;;;2.75;;
11797;SDS011;5956;51.428;6.682;2023-09-19T00:17:51;9.50;;;3.20;;
11797;SDS011;5956;51.428;6.682;2023-09-19T00:20:18;7.75;;;2.90;;
11797;SDS011;5956;51.428;6.682;2023-09-19T00:22:48;10.27;;;3.05;;
11797;SDS011;5956;51.428;6.682;2023-09-19T00:25:14;8.07;;;2.95;;
11797;SDS011;5956;51.428;6.682;2023-09-19T00:27:41;8.02;;;2.72;;
11797;SDS011;5956;51.428;6.682;2023-09-19T00:30:08;7.15;;;3.33;;
11797;SDS011;5956;51.428;6.682;2023-09-19T00:32:39;5.97;;;2.80;;
11797;SDS011;5956;51.428;6.682;2023-09-19T00:35:06;7.65;;;3.00;;
11797;SDS011;5956;51.428;6.682;2023-09-19T00:37:33;6.75;;;2.90;;
11797;SDS011;5956;51.428;6.682;2023-09-19T00:40:01;10.30;;;3.30;;
11797;SDS011;5956;51.428;6.682;2023-09-19T00:42:28;5.57;;;3.20;;
11797;SDS011;5956;51.428;6.682;2023-09-19T00:44:54;9.20;;;3.80;;
11797;SDS011;5956;51.428;6.682;2023-09-19T00:47:20;6.40;;;3.08;;
11797;SDS011;5956;51.428;6.682;2023-09-19T00:49:47;9.90;;;2.80;;
11797;SDS011;5956;51.428;6.682;2023-09-19T00:52:17;8.45;;;3.15;;
11797;SDS011;5956;51.428;6.682;2023-09-19T00:54:45;7.97;;;3.13;;
11797;SDS011;5956;51.428;6.682;2023-09-19T00:57:13;10.57;;;2.92;;
11797;SDS011;5956;51.428;6.682;2023-09-19T00:59:44;9.15;;;3.00;;
11797;SDS011;5956;51.428;6.682;2023-09-19T01:02:11;8.25;;;2.78;;
11797;SDS011;5956;51.428;6.682;2023-09-19T01:04:39;8.90;;;3.88;;
11797;SDS011;5956;51.428;6.682;2023-09-19T01:07:06;11.18;;;3.67;;
11797;SDS011;5956;51.428;6.682;2023-09-19T01:09:33;11.48;;;3.40;;
11797;SDS011;5956;51.428;6.682;2023-09-19T01:12:01;9.82;;;3.58;;
11797;SDS011;5956;51.428;6.682;2023-09-19T01:14:31;7.50;;;2.55;;
11797;SDS011;5956;51.428;6.682;2023-09-19T01:17:01;8.98;;;3.17;;
11797;SDS011;5956;51.428;6.682;2023-09-19T01:22:36;6.65;;;2.63;;
11797;SDS011;5956;51.428;6.682;2023-09-19T01:25:11;6.82;;;3.00;;
11797;SDS011;5956;51.428;6.682;2023-09-19T01:27:53;6.63;;;2.67;;
11797;SDS011;5956;51.428;6.682;2023-09-19T01:30:26;8.68;;;3.10;;
11797;SDS011;5956;51.428;6.682;2023-09-19T01:32:54;10.97;;;3.37;;
11797;SDS011;5956;51.428;6.682;2023-09-19T01:35:22;7.25;;;3.00;;
11797;SDS011;5956;51.428;6.682;2023-09-19T01:37:49;9.38;;;3.08;;
11797;SDS011;5956;51.428;6.682;2023-09-19T01:40:17;11.90;;;3.25;;
11797;SDS011;5956;51.428;6.682;2023-09-19T01:42:56;9.20;;;3.00;;
11797;SDS011;5956;51.428;6.682;2023-09-19T01:45:26;9.07;;;3.10;;
11797;SDS011;5956;51.428;6.682;2023-09-19T01:47:56;9.48;;;3.45;;
11797;SDS011;5956;51.428;6.682;2023-09-19T01:50:29;7.88;;;3.15;;
11797;SDS011;5956;51.428;6.682;2023-09-19T01:52:58;6.70;;;3.15;;
11797;SDS011;5956;51.428;6.682;2023-09-19T01:55:26;10.20;;;3.92;;
11797;SDS011;5956;51.428;6.682;2023-09-19T01:57:57;8.00;;;2.90;;
11797;SDS011;5956;51.428;6.682;2023-09-19T02:00:26;8.85;;;3.45;;
11797;SDS011;5956;51.428;6.682;2023-09-19T02:02:54;7.95;;;2.90;;
11797;SDS011;5956;51.428;6.682;2023-09-19T02:05:24;10.27;;;3.55;;
11797;SDS011;5956;51.428;6.682;2023-09-19T02:07:51;8.77;;;2.63;;
11797;SDS011;5956;51.428;6.682;2023-09-19T02:10:18;7.65;;;3.25;;
11797;SDS011;5956;51.428;6.682;2023-09-19T02:12:44;9.88;;;3.40;;
11797;SDS011;5956;51.428;6.682;2023-09-19T02:15:11;8.75;;;2.88;;
11797;SDS011;5956;51.428;6.682;2023-09-19T02:17:39;5.47;;;2.58;;
11797;SDS011;5956;51.428;6.682;2023-09-19T02:20:07;10.07;;;3.10;;
11797;SDS011;5956;51.428;6.682;2023-09-19T02:22:35;8.80;;;2.90;;
11797;SDS011;5956;51.428;6.682;2023-09-19T02:25:02;7.88;;;3.30;;
11797;SDS011;5956;51.428;6.682;2023-09-19T02:27:30;9.90;;;3.30;;
11797;SDS011;5956;51.428;6.682;2023-09-19T02:29:56;8.77;;;3.05;;
11797;SDS011;5956;51.428;6.682;2023-09-19T02:32:23;6.72;;;2.72;;
11797;SDS011;5956;51.428;6.682;2023-09-19T02:34:51;11.48;;;3.58;;
11797;SDS011;5956;51.428;6.682;2023-09-19T02:37:18;6.07;;;3.28;;
11797;SDS011;5956;51.428;6.682;2023-09-19T02:39:44;8.85;;;2.83;;
11797;SDS011;5956;51.428;6.682;2023-09-19T02:42:11;6.13;;;2.78;;
11797;SDS011;5956;51.428;6.682;2023-09-19T02:44:37;7.30;;;2.90;;
11797;SDS011;5956;51.428;6.682;2023-09-19T02:47:05;12.18;;;3.45;;
11797;SDS011;5956;51.428;6.682;2023-09-19T02:49:31;8.73;;;3.08;;
11797;SDS011;5956;51.428;6.682;2023-09-19T02:51:59;7.00;;;2.92;;
11797;SDS011;5956;51.428;6.682;2023-09-19T02:54:26;9.38;;;3.10;;
11797;SDS011;5956;51.428;6.682;2023-09-19T02:56:53;8.35;;;3.20;;
11797;SDS011;5956;51.428;6.682;2023-09-19T02:59:20;10.25;;;3.20;;
11797;SDS011;5956;51.428;6.682;2023-09-19T03:01:46;9.07;;;2.97;;
11797;SDS011;5956;51.428;6.682;2023-09-19T03:04:13;9.30;;;3.20;;
11797;SDS011;5956;51.428;6.682;2023-09-19T03:06:39;9.57;;;3.13;;
11797;SDS011;5956;51.428;6.682;2023-09-19T03:09:07;7.80;;;3.05;;
11797;SDS011;5956;51.428;6.682;2023-09-19T03:11:37;6.38;;;3.08;;
11797;SDS011;5956;51.428;6.682;2023-09-19T03:14:05;7.85;;;2.92;;
11797;SDS011;5956;51.428;6.682;2023-09-19T03:16:31;7.78;;;3.00;;
11797;SDS011;5956;51.428;6.682;2023-09-19T03:18:58;5.47;;;3.03;;
11797;SDS011;5956;51.428;6.682;2023-09-19T03:21:25;9.57;;;3.05;;
11797;SDS011;5956;51.428;6.682;2023-09-19T03:23:51;7.30;;;2.83;;
11797;SDS011;5956;51.428;6.682;2023-09-19T03:26:19;5.90;;;2.67;;
11797;SDS011;5956;51.428;6.682;2023-09-19T03:28:45;7.20;;;2.70;;
11797;SDS011;5956;51.428;6.682;2023-09-19T03:31:12;6.93;;;3.05;;
11797;SDS011;5956;51.428;6.682;2023-09-19T03:33:39;7.97;;;3.20;;
11797;SDS011;5956;51.428;6.682;2023-09-19T03:36:05;8.95;;;2.80;;
11797;SDS011;5956;51.428;6.682;2023-09-19T03:38:32;11.35;;;3.25;;
11797;SDS011;5956;51.428;6.682;2023-09-19T03:40:59;7.40;;;2.93;;
11797;SDS011;5956;51.428;6.682;2023-09-19T03:43:27;7.35;;;2.97;;
11797;SDS011;5956;51.428;6.682;2023-09-19T03:45:54;7.50;;;2.75;;
11797;SDS011;5956;51.428;6.682;2023-09-19T03:48:20;7.47;;;3.58;;
11797;SDS011;5956;51.428;6.682;2023-09-19T03:50:48;5.70;;;2.72;;
11797;SDS011;5956;51.428;6.682;2023-09-19T03:53:15;8.27;;;2.78;;
11797;SDS011;5956;51.428;6.682;2023-09-19T03:55:41;8.15;;;2.60;;
11797;SDS011;5956;51.428;6.682;2023-09-19T03:58:08;10.30;;;3.47;;
11797;SDS011;5956;51.428;6.682;2023-09-19T04:00:36;7.30;;;2.93;;
11797;SDS011;5956;51.428;6.682;2023-09-19T04:03:03;6.60;;;3.03;;
11797;SDS011;5956;51.428;6.682;2023-09-19T04:05:31;6.53;;;2.45;;
11797;SDS011;5956;51.428;6.682;2023-09-19T04:07:58;5.35;;;2.70;;
11797;SDS011;5956;51.428;6.682;2023-09-19T04:10:25;8.10;;;2.67;;
11797;SDS011;5956;51.428;6.682;2023-09-19T04:12:51;8.57;;;3.28;;
11797;SDS011;5956;51.428;6.682;2023-09-19T04:15:19;8.07;;;2.57;;
11797;SDS011;5956;51.428;6.682;2023-09-19T04:17:49;8.80;;;3.15;;
11797;SDS011;5956;51.428;6.682;2023-09-19T04:20:16;8.80;;;3.25;;
11797;SDS011;5956;51.428;6.682;2023-09-19T04:22:44;8.27;;;3.08;;
11797;SDS011;5956;51.428;6.682;2023-09-19T04:25:11;7.90;;;2.78;;
11797;SDS011;5956;51.428;6.682;2023-09-19T04:27:37;8.73;;;3.17;;
11797;SDS011;5956;51.428;6.682;2023-09-19T04:30:05;7.33;;;3.00;;
11797;SDS011;5956;51.428;6.682;2023-09-19T04:32:35;10.57;;;3.13;;
11797;SDS011;5956;51.428;6.682;2023-09-19T04:35:06;8.33;;;2.93;;
11797;SDS011;5956;51.428;6.682;2023-09-19T04:37:35;6.63;;;3.10;;
11797;SDS011;5956;51.428;6.682;2023-09-19T04:40:03;8.20;;;2.72;;
11797;SDS011;5956;51.428;6.682;2023-09-19T04:42:31;9.57;;;3.10;;
11797;SDS011;5956;51.428;6.682;2023-09-19T04:44:57;8.67;;;2.83;;
11797;SDS011;5956;51.428;6.682;2023-09-19T04:47:25;8.20;;;3.08;;
11797;SDS011;5956;51.428;6.682;2023-09-19T04:49:51;8.93;;;3.10;;
11797;SDS011;5956;51.428;6.682;2023-09-19T04:52:19;7.20;;;3.03;;
11797;SDS011;5956;51.428;6.682;2023-09-19T04:54:46;8.65;;;2.78;;
11797;SDS011;5956;51.428;6.682;2023-09-19T04:57:13;7.93;;;2.78;;
11797;SDS011;5956;51.428;6.682;2023-09-19T04:59:41;6.32;;;3.03;;
11797;SDS011;5956;51.428;6.682;2023-09-19T05:02:07;8.45;;;2.80;;
11797;SDS011;5956;51.428;6.682;2023-09-19T05:04:34;8.17;;;3.90;;
11797;SDS011;5956;51.428;6.682;2023-09-19T05:07:01;12.65;;;6.25;;
11797;SDS011;5956;51.428;6.682;2023-09-19T05:09:29;12.20;;;2.97;;
11797;SDS011;5956;51.428;6.682;2023-09-19T05:11:59;6.95;;;2.95;;
11797;SDS011;5956;51.428;6.682;2023-09-19T05:14:25;6.10;;;2.95;;
11797;SDS011;5956;51.428;6.682;2023-09-19T05:16:52;8.15;;;3.38;;
11797;SDS011;5956;51.428;6.682;2023-09-19T05:19:18;13.80;;;3.03;;
11797;SDS011;5956;51.428;6.682;2023-09-19T05:21:45;9.40;;;3.27;;
11797;SDS011;5956;51.428;6.682;2023-09-19T05:24:14;9.40;;;2.92;;
11797;SDS011;5956;51.428;6.682;2023-09-19T05:27:39;7.60;;;3.93;;
11797;SDS011;5956;51.428;6.682;2023-09-19T05:30:07;11.97;;;5.43;;
11797;SDS011;5956;51.428;6.682;2023-09-19T05:32:34;12.20;;;4.57;;
11797;SDS011;5956;51.428;6.682;2023-09-19T05:35:00;7.63;;;2.97;;
11797;SDS011;5956;51.428;6.682;2023-09-19T05:37:28;8.88;;;3.65;;
11797;SDS011;5956;51.428;6.682;2023-09-19T05:39:54;9.00;;;3.13;;
11797;SDS011;5956;51.428;6.682;2023-09-19T05:42:22;10.05;;;3.60;;
11797;SDS011;5956;51.428;6.682;2023-09-19T05:44:50;8.00;;;3.58;;
11797;SDS011;5956;51.428;6.682;2023-09-19T05:47:16;8.95;;;3.30;;
11797;SDS011;5956;51.428;6.682;2023-09-19T05:49:43;10.32;;;3.50;;
11797;SDS011;5956;51.428;6.682;2023-09-19T05:52:09;11.57;;;3.55;;
11797;SDS011;5956;51.428;6.682;2023-09-19T05:54:36;8.68;;;3.42;;
11797;SDS011;5956;51.428;6.682;2023-09-19T05:57:03;10.38;;;3.50;;
11797;SDS011;5956;51.428;6.682;2023-09-19T05:59:29;9.15;;;3.20;;
11797;SDS011;5956;51.428;6.682;2023-09-19T06:01:57;7.70;;;3.30;;
11797;SDS011;5956;51.428;6.682;2023-09-19T06:04:24;17.88;;;8.32;;
11797;SDS011;5956;51.428;6.682;2023-09-19T06:06:51;17.98;;;9.10;;
11797;SDS011;5956;51.428;6.682;2023-09-19T06:09:19;10.75;;;3.97;;
11797;SDS011;5956;51.428;6.682;2023-09-19T06:11:48;9.68;;;2.95;;
11797;SDS011;5956;51.428;6.682;2023-09-19T06:14:16;7.60;;;3.28;;
11797;SDS011;5956;51.428;6.682;2023-09-19T06:16:43;8.82;;;3.58;;
11797;SDS011;5956;51.428;6.682;2023-09-19T06:19:11;10.10;;;3.72;;
11797;SDS011;5956;51.428;6.682;2023-09-19T06:21:38;11.25;;;3.55;;
11797;SDS011;5956;51.428;6.682;2023-09-19T06:24:05;8.68;;;3.28;;
11797;SDS011;5956;51.428;6.682;2023-09-19T06:26:31;7.28;;;3.33;;
11797;SDS011;5956;51.428;6.682;2023-09-19T06:28:58;7.03;;;2.88;;
11797;SDS011;5956;51.428;6.682;2023-09-19T06:31:25;8.10;;;3.35;;
11797;SDS011;5956;51.428;6.682;2023-09-19T06:33:51;8.02;;;3.20;;
11797;SDS011;5956;51.428;6.682;2023-09-19T06:36:19;8.35;;;3.13;;
11797;SDS011;5956;51.428;6.682;2023-09-19T06:38:46;9.85;;;3.38;;
11797;SDS011;5956;51.428;6.682;2023-09-19T06:41:13;16.38;;;12.05;;
11797;SDS011;5956;51.428;6.682;2023-09-19T06:43:42;7.20;;;4.78;;
11797;SDS011;5956;51.428;6.682;2023-09-19T06:46:09;9.40;;;3.67;;
11797;SDS011;5956;51.428;6.682;2023-09-19T06:48:36;5.80;;;2.95;;
11797;SDS011;5956;51.428;6.682;2023-09-19T06:51:02;20.10;;;10.50;;
11797;SDS011;5956;51.428;6.682;2023-09-19T06:53:31;13.65;;;7.55;;
11797;SDS011;5956;51.428;6.682;2023-09-19T06:56:00;12.05;;;3.80;;
11797;SDS011;5956;51.428;6.682;2023-09-19T06:58:27;6.25;;;3.28;;
11797;SDS011;5956;51.428;6.682;2023-09-19T07:00:54;12.80;;;3.67;;
11797;SDS011;5956;51.428;6.682;2023-09-19T07:03:21;7.05;;;3.20;;
11797;SDS011;5956;51.428;6.682;2023-09-19T07:05:51;10.10;;;3.58;;
11797;SDS011;5956;51.428;6.682;2023-09-19T07:08:17;7.57;;;3.40;;
11797;SDS011;5956;51.428;6.682;2023-09-19T07:10:46;8.35;;;2.95;;
11797;SDS011;5956;51.428;6.682;2023-09-19T07:13:14;12.60;;;3.88;;
11797;SDS011;5956;51.428;6.682;2023-09-19T07:15:41;10.10;;;3.35;;
11797;SDS011;5956;51.428;6.682;2023-09-19T07:18:11;9.95;;;3.88;;
11797;SDS011;5956;51.428;6.682;2023-09-19T07:20:39;9.30;;;3.65;;
11797;SDS011;5956;51.428;6.682;2023-09-19T07:23:10;10.05;;;3.53;;
11797;SDS011;5956;51.428;6.682;2023-09-19T07:25:38;10.30;;;3.45;;
11797;SDS011;5956;51.428;6.682;2023-09-19T07:28:06;8.27;;;3.00;;
11797;SDS011;5956;51.428;6.682;2023-09-19T07:30:35;9.30;;;3.55;;
11797;SDS011;5956;51.428;6.682;2023-09-19T07:33:02;7.05;;;3.28;;
11797;SDS011;5956;51.428;6.682;2023-09-19T07:35:30;10.35;;;3.20;;
11797;SDS011;5956;51.428;6.682;2023-09-19T07:37:56;10.48;;;3.17;;
11797;SDS011;5956;51.428;6.682;2023-09-19T07:40:23;5.18;;;2.85;;
11797;SDS011;5956;51.428;6.682;2023-09-19T07:42:54;9.75;;;3.22;;
11797;SDS011;5956;51.428;6.682;2023-09-19T07:45:22;8.50;;;3.45;;
11797;SDS011;5956;51.428;6.682;2023-09-19T07:47:50;12.25;;;3.50;;
11797;SDS011;5956;51.428;6.682;2023-09-19T07:50:17;8.30;;;3.30;;
11797;SDS011;5956;51.428;6.682;2023-09-19T09:06:08;7.22;;;3.13;;
11797;SDS011;5956;51.428;6.682;2023-09-19T09:08:36;7.78;;;3.08;;
11797;SDS011;5956;51.428;6.682;2023-09-19T09:11:03;8.15;;;2.72;;
11797;SDS011;5956;51.428;6.682;2023-09-19T09:13:33;8.57;;;3.08;;
11797;SDS011;5956;51.428;6.682;2023-09-19T09:16:00;5.57;;;3.20;;
11797;SDS011;5956;51.428;6.682;2023-09-19T09:18:27;9.85;;;3.28;;
11797;SDS011;5956;51.428;6.682;2023-09-19T09:20:55;5.75;;;2.75;;
11797;SDS011;5956;51.428;6.682;2023-09-19T09:23:23;8.85;;;3.28;;
11797;SDS011;5956;51.428;6.682;2023-09-19T09:25:51;7.07;;;3.05;;
11797;SDS011;5956;51.428;6.682;2023-09-19T09:28:22;11.90;;;5.10;;
11797;SDS011;5956;51.428;6.682;2023-09-19T09:30:48;10.50;;;4.15;;
11797;SDS011;5956;51.428;6.682;2023-09-19T09:33:15;7.30;;;3.28;;
11797;SDS011;5956;51.428;6.682;2023-09-19T09:35:50;10.65;;;3.58;;
11797;SDS011;5956;51.428;6.682;2023-09-19T09:38:23;8.13;;;3.22;;
11797;SDS011;5956;51.428;6.682;2023-09-19T09:40:53;7.22;;;3.55;;
11797;SDS011;5956;51.428;6.682;2023-09-19T09:43:26;7.40;;;2.90;;
11797;SDS011;5956;51.428;6.682;2023-09-19T09:46:05;7.70;;;3.08;;
11797;SDS011;5956;51.428;6.682;2023-09-19T09:48:36;7.75;;;3.20;;
11797;SDS011;5956;51.428;6.682;2023-09-19T09:51:04;6.70;;;3.17;;
11797;SDS011;5956;51.428;6.682;2023-09-19T09:53:34;9.30;;;3.13;;
11797;SDS011;5956;51.428;6.682;2023-09-19T09:56:02;9.45;;;3.00;;
11797;SDS011;5956;51.428;6.682;2023-09-19T09:58:31;8.35;;;3.35;;
11797;SDS011;5956;51.428;6.682;2023-09-19T10:00:58;9.55;;;3.00;;
11797;SDS011;5956;51.428;6.682;2023-09-19T10:03:32;6.82;;;2.90;;
11797;SDS011;5956;51.428;6.682;2023-09-19T10:06:04;9.35;;;2.75;;
11797;SDS011;5956;51.428;6.682;2023-09-19T10:08:58;9.07;;;2.85;;
11797;SDS011;5956;51.428;6.682;2023-09-19T10:11:31;8.20;;;3.08;;
11797;SDS011;5956;51.428;6.682;2023-09-19T10:13:57;6.35;;;3.00;;
11797;SDS011;5956;51.428;6.682;2023-09-19T10:16:26;8.00;;;3.33;;
11797;SDS011;5956;51.428;6.682;2023-09-19T10:18:56;6.53;;;3.38;;
11797;SDS011;5956;51.428;6.682;2023-09-19T10:21:24;7.68;;;3.22;;
11797;SDS011;5956;51.428;6.682;2023-09-19T10:23:55;7.45;;;3.35;;
11797;SDS011;5956;51.428;6.682;2023-09-19T10:26:25;5.65;;;2.67;;
11797;SDS011;5956;51.428;6.682;2023-09-19T10:28:56;9.48;;;3.13;;
11797;SDS011;5956;51.428;6.682;2023-09-19T10:31:24;8.13;;;3.15;;
11797;SDS011;5956;51.428;6.682;2023-09-19T10:33:52;8.57;;;3.15;;
11797;SDS011;5956;51.428;6.682;2023-09-19T10:36:20;6.35;;;2.72;;
11797;SDS011;5956;51.428;6.682;2023-09-19T10:38:48;6.07;;;2.92;;
11797;SDS011;5956;51.428;6.682;2023-09-19T10:41:17;9.82;;;3.08;;
11797;SDS011;5956;51.428;6.682;2023-09-19T10:43:47;7.05;;;2.90;;
11797;SDS011;5956;51.428;6.682;2023-09-19T10:46:14;6.32;;;2.42;;
11797;SDS011;5956;51.428;6.682;2023-09-19T10:48:40;8.60;;;2.78;;
11797;SDS011;5956;51.428;6.682;2023-09-19T10:51:10;8.55;;;3.10;;
11797;SDS011;5956;51.428;6.682;2023-09-19T10:53:45;8.65;;;3.30;;
11797;SDS011;5956;51.428;6.682;2023-09-19T10:56:15;8.90;;;3.00;;
11797;SDS011;5956;51.428;6.682;2023-09-19T10:58:42;7.38;;;2.75;;
11797;SDS011;5956;51.428;6.682;2023-09-19T11:01:11;4.35;;;2.55;;
11797;SDS011;5956;51.428;6.682;2023-09-19T11:03:40;12.10;;;7.10;;
11797;SDS011;5956;51.428;6.682;2023-09-19T11:06:10;8.68;;;2.75;;
11797;SDS011;5956;51.428;6.682;2023-09-19T11:09:01;7.20;;;2.75;;
11797;SDS011;5956;51.428;6.682;2023-09-19T11:11:47;8.20;;;3.03;;
11797;SDS011;5956;51.428;6.682;2023-09-19T11:14:30;4.63;;;2.80;;
11797;SDS011;5956;51.428;6.682;2023-09-19T11:25:44;6.05;;;3.22;;
11797;SDS011;5956;51.428;6.682;2023-09-19T11:28:27;6.53;;;3.03;;
11797;SDS011;5956;51.428;6.682;2023-09-19T11:30:55;5.22;;;2.70;;
11797;SDS011;5956;51.428;6.682;2023-09-19T11:33:24;11.23;;;7.70;;
11797;SDS011;5956;51.428;6.682;2023-09-19T11:36:03;7.85;;;3.42;;
11797;SDS011;5956;51.428;6.682;2023-09-19T11:46:53;5.00;;;2.20;;
11797;SDS011;5956;51.428;6.682;2023-09-19T11:49:25;6.10;;;2.75;;
11797;SDS011;5956;51.428;6.682;2023-09-19T11:51:55;7.18;;;2.45;;
11797;SDS011;5956;51.428;6.682;2023-09-19T11:54:26;5.75;;;2.85;;
11797;SDS011;5956;51.428;6.682;2023-09-19T11:56:57;8.82;;;2.95;;
11797;SDS011;5956;51.428;6.682;2023-09-19T11:59:24;4.68;;;2.88;;
11797;SDS011;5956;51.428;6.682;2023-09-19T12:01:55;9.23;;;4.30;;
11797;SDS011;5956;51.428;6.682;2023-09-19T12:07:07;8.00;;;2.88;;
11797;SDS011;5956;51.428;6.682;2023-09-19T12:09:39;4.20;;;2.20;;
11797;SDS011;5956;51.428;6.682;2023-09-19T12:12:09;3.22;;;2.38;;
11797;SDS011;5956;51.428;6.682;2023-09-19T12:14:37;4.68;;;2.42;;
11797;SDS011;5956;51.428;6.682;2023-09-19T12:17:08;6.53;;;2.60;;
11797;SDS011;5956;51.428;6.682;2023-09-19T12:19:35;3.70;;;2.50;;
11797;SDS011;5956;51.428;6.682;2023-09-19T12:22:03;3.92;;;2.20;;
11797;SDS011;5956;51.428;6.682;2023-09-19T12:24:31;5.78;;;2.55;;
11797;SDS011;5956;51.428;6.682;2023-09-19T12:27:01;4.97;;;2.63;;
11797;SDS011;5956;51.428;6.682;2023-09-19T12:29:31;5.88;;;2.50;;
11797;SDS011;5956;51.428;6.682;2023-09-19T12:31:59;4.78;;;2.40;;
11797;SDS011;5956;51.428;6.682;2023-09-19T12:34:30;6.53;;;2.58;;
11797;SDS011;5956;51.428;6.682;2023-09-19T12:37:09;8.57;;;2.45;;
11797;SDS011;5956;51.428;6.682;2023-09-19T12:39:41;5.57;;;2.60;;
11797;SDS011;5956;51.428;6.682;2023-09-19T12:42:10;8.00;;;2.92;;
11797;SDS011;5956;51.428;6.682;2023-09-19T12:44:40;8.00;;;2.53;;
11797;SDS011;5956;51.428;6.682;2023-09-19T12:47:09;5.22;;;2.28;;
11797;SDS011;5956;51.428;6.682;2023-09-19T12:49:41;5.57;;;2.30;;
11797;SDS011;5956;51.428;6.682;2023-09-19T12:52:25;4.22;;;2.50;;
11797;SDS011;5956;51.428;6.682;2023-09-19T12:54:52;5.32;;;2.53;;
11797;SDS011;5956;51.428;6.682;2023-09-19T12:57:28;2.95;;;1.75;;
11797;SDS011;5956;51.428;6.682;2023-09-19T12:59:57;3.75;;;2.25;;
11797;SDS011;5956;51.428;6.682;2023-09-19T13:02:25;3.42;;;2.03;;
11797;SDS011;5956;51.428;6.682;2023-09-19T13:04:55;3.65;;;2.22;;
11797;SDS011;5956;51.428;6.682;2023-09-19T13:07:41;3.35;;;2.20;;
11797;SDS011;5956;51.428;6.682;2023-09-19T13:10:10;2.92;;;2.10;;
11797;SDS011;5956;51.428;6.682;2023-09-19T13:12:41;6.95;;;2.40;;
11797;SDS011;5956;51.428;6.682;2023-09-19T13:15:09;6.55;;;2.10;;
11797;SDS011;5956;51.428;6.682;2023-09-19T13:17:44;5.80;;;1.95;;
11797;SDS011;5956;51.428;6.682;2023-09-19T13:20:23;2.53;;;1.83;;
11797;SDS011;5956;51.428;6.682;2023-09-19T13:22:52;4.47;;;1.92;;
11797;SDS011;5956;51.428;6.682;2023-09-19T13:25:23;4.70;;;1.63;;
11797;SDS011;5956;51.428;6.682;2023-09-19T13:27:52;4.55;;;1.80;;
11797;SDS011;5956;51.428;6.682;2023-09-19T13:30:19;4.28;;;1.63;;
11797;SDS011;5956;51.428;6.682;2023-09-19T13:32:47;2.90;;;1.63;;
11797;SDS011;5956;51.428;6.682;2023-09-19T13:35:14;2.28;;;1.50;;
11797;SDS011;5956;51.428;6.682;2023-09-19T13:37:42;2.85;;;1.80;;
11797;SDS011;5956;51.428;6.682;2023-09-19T13:40:12;4.03;;;1.63;;
11797;SDS011;5956;51.428;6.682;2023-09-19T13:42:39;4.78;;;1.67;;
11797;SDS011;5956;51.428;6.682;2023-09-19T13:45:06;4.07;;;1.65;;
11797;SDS011;5956;51.428;6.682;2023-09-19T13:47:37;3.55;;;1.88;;
11797;SDS011;5956;51.428;6.682;2023-09-19T13:50:04;4.72;;;1.80;;
11797;SDS011;5956;51.428;6.682;2023-09-19T13:52:31;4.47;;;1.50;;
11797;SDS011;5956;51.428;6.682;2023-09-19T13:55:00;4.38;;;1.80;;
11797;SDS011;5956;51.428;6.682;2023-09-19T13:57:27;3.45;;;1.75;;
11797;SDS011;5956;51.428;6.682;2023-09-19T13:59:54;3.70;;;1.60;;
11797;SDS011;5956;51.428;6.682;2023-09-19T14:02:22;3.83;;;1.88;;
11797;SDS011;5956;51.428;6.682;2023-09-19T14:04:49;4.25;;;1.60;;
11797;SDS011;5956;51.428;6.682;2023-09-19T14:07:16;3.75;;;1.52;;
11797;SDS011;5956;51.428;6.682;2023-09-19T14:09:45;1.98;;;1.38;;
11797;SDS011;5956;51.428;6.682;2023-09-19T14:12:17;3.13;;;1.63;;
11797;SDS011;5956;51.428;6.682;2023-09-19T14:14:44;2.63;;;1.20;;
11797;SDS011;5956;51.428;6.682;2023-09-19T14:17:12;3.05;;;1.40;;
11797;SDS011;5956;51.428;6.682;2023-09-19T14:19:40;4.05;;;1.33;;
11797;SDS011;5956;51.428;6.682;2023-09-19T14:22:09;3.03;;;1.50;;
11797;SDS011;5956;51.428;6.682;2023-09-19T14:24:36;4.20;;;1.33;;
11797;SDS011;5956;51.428;6.682;2023-09-19T14:27:03;2.72;;;1.13;;
11797;SDS011;5956;51.428;6.682;2023-09-19T14:29:33;1.45;;;1.23;;
11797;SDS011;5956;51.428;6.682;2023-09-19T14:32:00;3.70;;;1.25;;
11797;SDS011;5956;51.428;6.682;2023-09-19T14:34:27;3.28;;;1.30;;
11797;SDS011;5956;51.428;6.682;2023-09-19T14:36:54;2.85;;;1.45;;
11797;SDS011;5956;51.428;6.682;2023-09-19T14:39:21;2.05;;;1.27;;
11797;SDS011;5956;51.428;6.682;2023-09-19T14:41:48;4.55;;;1.30;;
11797;SDS011;5956;51.428;6.682;2023-09-19T14:44:14;2.20;;;1.20;;
11797;SDS011;5956;51.428;6.682;2023-09-19T14:46:43;3.20;;;1.15;;
11797;SDS011;5956;51.428;6.682;2023-09-19T14:49:10;2.53;;;1.25;;
11797;SDS011;5956;51.428;6.682;2023-09-19T14:51:37;1.42;;;1.05;;
11797;SDS011;5956;51.428;6.682;2023-09-19T14:54:05;2.38;;;1.48;;
11797;SDS011;5956;51.428;6.682;2023-09-19T14:56:33;2.35;;;1.05;;
11797;SDS011;5956;51.428;6.682;2023-09-19T14:59:00;4.05;;;1.35;;
11797;SDS011;5956;51.428;6.682;2023-09-19T15:01:27;2.20;;;1.20;;
11797;SDS011;5956;51.428;6.682;2023-09-19T15:03:56;6.60;;;5.75;;
11797;SDS011;5956;51.428;6.682;2023-09-19T15:06:26;7.05;;;5.57;;
11797;SDS011;5956;51.428;6.682;2023-09-19T15:08:57;6.35;;;5.68;;
11797;SDS011;5956;51.428;6.682;2023-09-19T15:11:24;3.08;;;2.80;;
11797;SDS011;5956;51.428;6.682;2023-09-19T15:13:53;2.03;;;1.33;;
11797;SDS011;5956;51.428;6.682;2023-09-19T15:16:21;2.97;;;1.13;;
11797;SDS011;5956;51.428;6.682;2023-09-19T15:18:57;4.03;;;1.55;;
11797;SDS011;5956;51.428;6.682;2023-09-19T15:21:25;2.97;;;1.48;;
11797;SDS011;5956;51.428;6.682;2023-09-19T15:23:52;3.15;;;1.50;;
11797;SDS011;5956;51.428;6.682;2023-09-19T15:26:19;2.25;;;1.38;;
11797;SDS011;5956;51.428;6.682;2023-09-19T15:28:47;6.82;;;1.40;;
11797;SDS011;5956;51.428;6.682;2023-09-19T15:31:14;1.60;;;1.38;;
11797;SDS011;5956;51.428;6.682;2023-09-19T15:33:41;2.15;;;1.35;;
11797;SDS011;5956;51.428;6.682;2023-09-19T15:36:09;2.05;;;1.40;;
11797;SDS011;5956;51.428;6.682;2023-09-19T15:41:21;1.50;;;1.10;;
11797;SDS011;5956;51.428;6.682;2023-09-19T15:43:48;1.77;;;1.15;;
11797;SDS011;5956;51.428;6.682;2023-09-19T15:46:15;2.53;;;1.40;;
11797;SDS011;5956;51.428;6.682;2023-09-19T15:48:41;4.32;;;1.17;;
11797;SDS011;5956;51.428;6.682;2023-09-19T15:51:10;2.85;;;1.50;;
11797;SDS011;5956;51.428;6.682;2023-09-19T15:53:41;2.92;;;1.60;;
11797;SDS011;5956;51.428;6.682;2023-09-19T15:56:09;3.10;;;1.20;;
11797;SDS011;5956;51.428;6.682;2023-09-19T15:58:36;1.98;;;1.33;;
11797;SDS011;5956;51.428;6.682;2023-09-19T16:01:04;2.53;;;1.50;;
11797;SDS011;5956;51.428;6.682;2023-09-19T16:03:31;4.05;;;1.40;;
11797;SDS011;5956;51.428;6.682;2023-09-19T16:05:58;3.58;;;1.20;;
11797;SDS011;5956;51.428;6.682;2023-09-19T16:08:25;2.20;;;1.20;;
11797;SDS011;5956;51.428;6.682;2023-09-19T16:10:52;2.97;;;1.42;;
11797;SDS011;5956;51.428;6.682;2023-09-19T16:13:18;2.65;;;1.25;;
11797;SDS011;5956;51.428;6.682;2023-09-19T16:15:45;1.83;;;1.30;;
11797;SDS011;5956;51.428;6.682;2023-09-19T16:18:12;1.48;;;1.20;;
11797;SDS011;5956;51.428;6.682;2023-09-19T16:20:39;1.45;;;1.33;;
11797;SDS011;5956;51.428;6.682;2023-09-19T16:23:06;1.70;;;1.35;;
11797;SDS011;5956;51.428;6.682;2023-09-19T16:25:34;2.80;;;1.50;;
11797;SDS011;5956;51.428;6.682;2023-09-19T16:28:01;3.60;;;1.58;;
11797;SDS011;5956;51.428;6.682;2023-09-19T16:30:31;3.58;;;1.50;;
11797;SDS011;5956;51.428;6.682;2023-09-19T16:32:59;11.73;;;9.23;;
11797;SDS011;5956;51.428;6.682;2023-09-19T16:35:26;3.28;;;2.67;;
11797;SDS011;5956;51.428;6.682;2023-09-19T16:37:53;2.95;;;1.60;;
11797;SDS011;5956;51.428;6.682;2023-09-19T16:40:19;3.92;;;1.70;;
11797;SDS011;5956;51.428;6.682;2023-09-19T16:42:48;2.70;;;1.50;;
11797;SDS011;5956;51.428;6.682;2023-09-19T16:45:15;2.42;;;1.67;;
11797;SDS011;5956;51.428;6.682;2023-09-19T16:47:41;2.85;;;1.67;;